Time;durP1;ratioP1;P1;durP2;ratioP2;P2;SDS_P1;SDS_P2;PMS_P1;PMS_P2;Temp;Humidity;BMP_temperature;BMP_pressure;BME280_temperature;BME280_humidity;BME280_pressure;Samples;Min_cycle;Max_cycle;Signal;HPM_P1;HPM_P2
2022/06/22 00:02:27;;;;;;;1.57;0.70;;;24.00;84.00;;;;;;5094777;28;20016;-59
2022/06/22 00:05:06;;;;;;;0.80;0.80;;;24.00;84.10;;;;;;5094466;28;20382;-59
2022/06/22 00:07:57;;;;;;;2.08;0.75;;;23.90;84.20;;;;;;5094359;28;20036;-58
2022/06/22 00:10:45;;;;;;;0.75;0.63;;;23.60;83.60;;;;;;5082902;28;20028;-58
2022/06/22 00:13:21;;;;;;;0.68;0.57;;;23.90;84.00;;;;;;5094396;28;20032;-58
2022/06/22 00:15:48;;;;;;;1.70;0.93;;;23.90;81.30;;;;;;5094470;28;20024;-59
2022/06/22 00:18:34;;;;;;;1.05;0.80;;;23.70;51.90;;;;;;5094051;28;20100;-58
2022/06/22 00:21:06;;;;;;;0.80;0.50;;;23.90;84.00;;;;;;5094165;28;20069;-59
2022/06/22 00:23:38;;;;;;;1.17;0.80;;;23.80;84.00;;;;;;5094076;28;20024;-58
2022/06/22 00:26:31;;;;;;;1.58;0.60;;;23.80;52.00;;;;;;5093771;28;20069;-58
2022/06/22 00:29:09;;;;;;;0.88;0.70;;;24.00;84.30;;;;;;5083594;28;20039;-59
2022/06/22 00:31:40;;;;;;;2.30;0.77;;;23.80;83.60;;;;;;5094188;28;20495;-58
2022/06/22 00:34:09;;;;;;;1.40;0.60;;;23.80;58.60;;;;;;5093934;28;20104;-58
2022/06/22 00:36:55;;;;;;;1.25;0.90;;;23.50;83.80;;;;;;5093798;28;20376;-58
2022/06/22 00:39:20;;;;;;;1.13;0.50;;;23.70;83.80;;;;;;5093813;28;20024;-58
2022/06/22 00:41:58;;;;;;;1.05;0.63;;;23.70;52.10;;;;;;5093724;28;20475;-58
2022/06/22 00:44:33;;;;;;;1.30;0.73;;;23.70;52.20;;;;;;5093931;28;20020;-58
2022/06/22 00:47:16;;;;;;;3.03;0.95;;;23.80;83.50;;;;;;5093577;28;20043;-58
2022/06/22 00:49:45;;;;;;;1.30;0.80;;;24.00;52.30;;;;;;5093536;28;20099;-58
2022/06/22 00:52:15;;;;;;;1.23;0.88;;;23.30;68.10;;;;;;5093687;28;20035;-59
2022/06/22 00:54:45;;;;;;;1.38;0.80;;;23.30;64.40;;;;;;5093838;28;20020;-58
2022/06/22 00:57:19;;;;;;;1.05;0.73;;;23.30;68.50;;;;;;5093611;28;20391;-58
2022/06/22 00:59:55;;;;;;;1.27;0.73;;;23.80;83.90;;;;;;5093377;28;20020;-59
2022/06/22 01:02:56;;;;;;;1.33;0.55;;;23.70;84.00;;;;;;5093366;28;20028;-59
2022/06/22 01:05:27;;;;;;;0.93;0.70;;;23.60;53.30;;;;;;5079653;28;20085;-58
2022/06/22 01:08:16;;;;;;;1.20;0.90;;;23.60;52.30;;;;;;5093157;28;20048;-59
2022/06/22 01:11:02;;;;;;;2.75;0.73;;;23.70;52.40;;;;;;5077838;28;20036;-59
2022/06/22 01:13:38;;;;;;;3.50;0.90;;;23.30;84.10;;;;;;5092537;28;20072;-58
2022/06/22 01:16:22;;;;;;;0.75;0.60;;;23.60;52.40;;;;;;5093143;28;20514;-59
2022/06/22 01:19:11;;;;;;;0.98;0.65;;;23.70;52.40;;;;;;5093074;28;20145;-58
2022/06/22 01:21:43;;;;;;;1.15;0.70;;;23.70;84.30;;;;;;5092989;28;20441;-58
2022/06/22 01:24:18;;;;;;;0.93;0.65;;;23.80;84.40;;;;;;5093011;28;20204;-58
2022/06/22 01:27:21;;;;;;;0.90;0.52;;;23.60;52.20;;;;;;5092796;28;20562;-58
2022/06/22 01:29:56;;;;;;;1.77;0.93;;;23.50;84.20;;;;;;5092780;28;20032;-58
2022/06/22 01:32:28;;;;;;;1.73;0.77;;;23.80;84.30;;;;;;5093225;28;20028;-58
2022/06/22 01:35:03;;;;;;;1.17;0.73;;;23.70;84.10;;;;;;5093110;28;20050;-58
2022/06/22 01:37:32;;;;;;;1.05;0.63;;;23.70;84.00;;;;;;5092008;28;20024;-58
2022/06/22 01:40:06;;;;;;;1.30;0.70;;;23.60;52.50;;;;;;5092583;28;20084;-58
2022/06/22 01:42:47;;;;;;;1.83;0.85;;;23.60;52.50;;;;;;5092988;28;20383;-58
2022/06/22 01:45:38;;;;;;;0.95;0.85;;;23.60;84.40;;;;;;5092502;28;20028;-57
2022/06/22 01:48:11;;;;;;;1.20;0.90;;;23.50;82.30;;;;;;5092618;28;20099;-58
2022/06/22 01:50:50;;;;;;;3.80;0.70;;;23.30;84.30;;;;;;5092582;28;20035;-58
2022/06/22 01:53:31;;;;;;;2.05;0.73;;;23.60;53.00;;;;;;5092383;28;20032;-58
2022/06/22 01:56:02;;;;;;;1.55;0.90;;;23.70;84.40;;;;;;5092406;28;20494;-57
2022/06/22 01:59:03;;;;;;;2.38;1.05;;;23.40;84.20;;;;;;5092442;28;20024;-58
2022/06/22 02:02:01;;;;;;;2.28;0.77;;;23.10;64.40;;;;;;5092310;28;20028;-58
2022/06/22 02:04:46;;;;;;;1.35;0.68;;;23.50;52.20;;;;;;5092243;28;20024;-58
2022/06/22 02:10:34;;;;;;;2.97;0.95;;;23.70;55.50;;;;;;5092274;28;20463;-58
2022/06/22 02:13:28;;;;;;;1.38;0.80;;;23.50;52.30;;;;;;5092136;28;20016;-59
2022/06/22 02:16:00;;;;;;;1.88;1.00;;;23.80;84.40;;;;;;5092199;28;20117;-58
2022/06/22 02:18:37;;;;;;;1.48;0.82;;;23.40;84.30;;;;;;5092464;28;20024;-58
2022/06/22 02:21:15;;;;;;;1.48;0.70;;;23.60;84.10;;;;;;5092250;28;20028;-58
2022/06/22 02:23:41;;;;;;;0.98;0.60;;;23.10;68.90;;;;;;5092105;28;20095;-58
2022/06/22 02:26:24;;;;;;;1.42;0.75;;;23.80;68.50;;;;;;5092045;28;20040;-58
2022/06/22 02:28:50;;;;;;;1.00;0.75;;;23.80;71.90;;;;;;5092135;28;20039;-58
2022/06/22 02:31:18;;;;;;;1.30;0.63;;;23.40;52.50;;;;;;5092308;28;20463;-58
2022/06/22 02:33:48;;;;;;;1.92;0.93;;;23.50;83.80;;;;;;5092063;28;20058;-58
2022/06/22 02:36:14;;;;;;;0.95;0.50;;;23.60;84.20;;;;;;5092015;28;20477;-58
2022/06/22 02:38:42;;;;;;;0.60;0.60;;;23.40;52.50;;;;;;5092131;28;20056;-58
2022/06/22 02:46:39;;;;;;;0.85;0.70;;;23.40;83.40;;;;;;5091976;28;20678;-58
2022/06/22 02:49:23;;;;;;;1.13;0.85;;;23.40;52.50;;;;;;5095431;28;20020;-58
2022/06/22 02:51:50;;;;;;;0.82;0.80;;;23.40;83.60;;;;;;5095902;28;20020;-58
2022/06/22 02:54:24;;;;;;;2.53;1.00;;;23.20;84.00;;;;;;5095778;28;20107;-58
2022/06/22 02:57:00;;;;;;;1.70;0.95;;;23.20;84.10;;;;;;5095948;28;20059;-58
2022/06/22 02:59:26;;;;;;;1.25;0.80;;;22.90;83.30;;;;;;5095795;28;20073;-57
2022/06/22 03:01:51;;;;;;;1.02;0.90;;;23.10;83.90;;;;;;5095782;28;20470;-58
2022/06/22 03:04:17;;;;;;;0.50;0.50;;;23.40;84.10;;;;;;5095637;28;20032;-58
2022/06/22 03:06:49;;;;;;;1.70;1.00;;;23.60;84.40;;;;;;5095441;28;20040;-58
2022/06/22 03:09:16;;;;;;;1.35;0.55;;;23.30;74.40;;;;;;5095353;28;20047;-57
2022/06/22 03:11:47;;;;;;;0.90;0.73;;;23.50;84.20;;;;;;5095480;28;20473;-57
2022/06/22 03:14:30;;;;;;;1.50;0.90;;;23.60;69.40;;;;;;5095525;28;20024;-58
2022/06/22 03:17:04;;;;;;;0.98;0.68;;;23.40;52.40;;;;;;5095390;28;20031;-57
2022/06/22 03:19:48;;;;;;;0.95;0.77;;;23.50;83.90;;;;;;5095432;28;20035;-57
2022/06/22 03:22:38;;;;;;;2.83;0.77;;;22.60;52.50;;;;;;5095217;28;20479;-57
2022/06/22 03:25:12;;;;;;;;;;;23.30;53.40;;;;;;5095041;28;20037;-58
2022/06/22 03:27:44;;;;;;;2.17;1.13;;;23.50;84.50;;;;;;5101852;28;20007;-58
2022/06/22 03:30:19;;;;;;;1.50;1.00;;;22.90;84.30;;;;;;5095411;28;20017;-58
2022/06/22 03:33:06;;;;;;;0.70;0.70;;;22.80;77.80;;;;;;5094900;28;20074;-58
2022/06/22 03:35:38;;;;;;;1.30;0.90;;;23.30;84.90;;;;;;5095042;28;20482;-58
2022/06/22 03:38:18;;;;;;;1.65;1.00;;;23.10;84.40;;;;;;5095208;28;20066;-59
2022/06/22 03:40:48;;;;;;;1.15;0.68;;;23.10;84.80;;;;;;5095016;28;20440;-58
2022/06/22 03:43:37;;;;;;;0.80;0.70;;;23.30;52.80;;;;;;5094969;28;20111;-58
2022/06/22 03:46:17;;;;;;;1.75;0.90;;;23.30;52.80;;;;;;5094643;28;20043;-58
2022/06/22 03:48:57;;;;;;;1.53;0.90;;;23.20;56.90;;;;;;5094799;28;20024;-57
2022/06/22 03:51:30;;;;;;;0.90;0.70;;;23.40;52.90;;;;;;5095008;28;20342;-58
2022/06/22 03:53:59;;;;;;;0.90;0.73;;;23.40;85.00;;;;;;5094922;28;20020;-55
2022/06/22 03:56:31;;;;;;;0.77;0.70;;;22.80;85.10;;;;;;5094665;28;20024;-53
2022/06/22 03:58:59;;;;;;;2.17;1.02;;;23.20;81.50;;;;;;5094258;28;20195;-52
2022/06/22 04:01:24;;;;;;;0.70;0.70;;;23.50;64.70;;;;;;5094530;28;20413;-54
2022/06/22 04:03:52;;;;;;;1.42;0.93;;;23.30;53.00;;;;;;5094532;28;20024;-55
2022/06/22 04:06:31;;;;;;;1.95;0.85;;;22.90;55.00;;;;;;5094296;28;20482;-55
2022/06/22 04:09:02;;;;;;;1.42;0.90;;;23.40;84.90;;;;;;5094188;28;20048;-52
2022/06/22 04:11:32;;;;;;;0.85;0.65;;;23.20;52.90;;;;;;5094345;28;20082;-52
2022/06/22 04:14:10;;;;;;;1.02;0.80;;;23.10;84.80;;;;;;5094225;28;20474;-53
2022/06/22 04:16:43;;;;;;;0.93;0.68;;;23.40;85.00;;;;;;5094177;28;20050;-52
2022/06/22 04:19:31;;;;;;;1.63;0.90;;;23.40;63.00;;;;;;5094127;28;20491;-52
2022/06/22 04:22:03;;;;;;;0.80;0.80;;;23.10;84.70;;;;;;5094049;28;20020;-50
2022/06/22 04:24:39;;;;;;;0.60;0.60;;;23.20;53.00;;;;;;5094024;28;20387;-53
2022/06/22 04:27:32;;;;;;;1.15;0.75;;;23.10;73.40;;;;;;5093886;28;20040;-55
2022/06/22 04:30:16;;;;;;;1.30;0.80;;;22.90;84.40;;;;;;5094086;28;20028;-51
2022/06/22 04:32:45;;;;;;;1.30;0.80;;;23.50;84.60;;;;;;5094015;28;20127;-55
2022/06/22 04:35:17;;;;;;;1.38;0.82;;;22.80;84.40;;;;;;5094134;28;20099;-54
2022/06/22 04:38:11;;;;;;;0.77;0.60;;;23.50;73.70;;;;;;5094129;28;20028;-51
2022/06/22 04:40:58;;;;;;;1.85;1.10;;;22.80;84.10;;;;;;5048786;28;20390;-55
2022/06/22 04:43:25;;;;;;;1.40;0.73;;;22.90;56.40;;;;;;5093997;28;20390;-54
2022/06/22 04:45:51;;;;;;;0.73;0.70;;;23.20;60.80;;;;;;5093566;28;20032;-53
2022/06/22 04:48:20;;;;;;;2.95;0.90;;;23.30;73.40;;;;;;5093671;28;20024;-52
2022/06/22 04:50:49;;;;;;;1.60;0.75;;;22.90;84.40;;;;;;5093604;28;20024;-52
2022/06/22 04:53:32;;;;;;;1.10;0.88;;;23.00;72.70;;;;;;5093418;28;20060;-54
2022/06/22 04:56:04;;;;;;;0.95;0.68;;;22.70;84.30;;;;;;5093542;28;20542;-52
2022/06/22 04:58:47;;;;;;;1.08;0.95;;;23.10;52.70;;;;;;5093661;28;20055;-52
2022/06/22 05:01:20;;;;;;;0.88;0.80;;;23.20;76.60;;;;;;5093272;28;20028;-54
2022/06/22 05:03:46;;;;;;;1.20;1.08;;;23.10;64.80;;;;;;5093516;28;20024;-52
2022/06/22 05:06:24;;;;;;;1.13;0.77;;;23.10;52.70;;;;;;5093066;28;20028;-59
2022/06/22 05:08:58;;;;;;;1.08;0.70;;;22.70;85.00;;;;;;5093146;28;20434;-59
2022/06/22 05:11:35;;;;;;;1.08;0.77;;;23.20;84.30;;;;;;5092202;28;20036;-59
2022/06/22 05:14:01;;;;;;;0.90;0.85;;;23.10;84.60;;;;;;5093016;28;20498;-55
2022/06/22 05:16:32;;;;;;;0.88;0.82;;;23.30;85.10;;;;;;5093044;28;20505;-53
2022/06/22 05:18:59;;;;;;;1.13;1.05;;;21.50;52.10;;;;;;5092999;28;20054;-56
2022/06/22 05:21:39;;;;;;;1.05;0.95;;;23.20;59.40;;;;;;5093206;28;20077;-53
2022/06/22 05:24:15;;;;;;;1.83;0.90;;;22.80;85.00;;;;;;5093240;28;20058;-55
2022/06/22 05:26:42;;;;;;;5.32;1.00;;;23.50;85.50;;;;;;5092949;28;20486;-56
2022/06/22 05:29:18;;;;;;;2.28;0.90;;;23.30;85.20;;;;;;5092815;28;20107;-56
2022/06/22 05:31:51;;;;;;;2.35;1.30;;;23.20;53.30;;;;;;5092852;28;20031;-56
2022/06/22 05:34:36;;;;;;;2.67;1.15;;;22.90;77.60;;;;;;5092656;28;20114;-55
2022/06/22 05:37:16;;;;;;;1.67;0.90;;;23.40;85.50;;;;;;5092827;28;20442;-54
2022/06/22 05:39:42;;;;;;;1.42;1.20;;;23.40;85.20;;;;;;5092748;28;20479;-55
2022/06/22 05:42:12;;;;;;;1.85;0.88;;;23.20;53.10;;;;;;5092985;28;20019;-55
2022/06/22 05:44:39;;;;;;;2.42;1.33;;;;;;;;;;5092719;28;20034;-54
2022/06/22 05:47:05;;;;;;;1.33;1.00;;;23.20;53.70;;;;;;5092394;28;20124;-54
2022/06/22 05:49:44;;;;;;;1.42;0.93;;;23.10;84.40;;;;;;5092449;28;20543;-55
2022/06/22 05:52:32;;;;;;;1.88;1.08;;;23.10;84.30;;;;;;5092701;28;20039;-56
2022/06/22 05:55:39;;;;;;;1.95;1.33;;;23.40;62.70;;;;;;5092459;28;20024;-56
2022/06/22 05:58:14;;;;;;;2.20;1.10;;;23.20;80.30;;;;;;5011457;28;20431;-51
2022/06/22 06:00:45;;;;;;;9.95;1.20;;;23.60;53.60;;;;;;5092767;28;20028;-56
2022/06/22 06:03:27;;;;;;;3.83;1.65;;;23.50;85.20;;;;;;5092334;28;20475;-55
2022/06/22 06:05:57;;;;;;;5.60;1.67;;;23.80;53.90;;;;;;5092348;28;20071;-55
2022/06/22 06:08:36;;;;;;;3.00;1.20;;;23.30;53.40;;;;;;5092077;28;20044;-55
2022/06/22 06:11:04;;;;;;;28.30;3.40;;;23.10;85.40;;;;;;5092569;28;20035;-58
2022/06/22 06:13:35;;;;;;;19.33;3.53;;;23.30;85.50;;;;;;5092183;28;20105;-55
2022/06/22 06:16:05;;;;;;;13.07;4.13;;;23.10;86.20;;;;;;5092173;28;20028;-56
2022/06/22 06:18:35;;;;;;;12.68;4.60;;;23.30;87.50;;;;;;5092282;28;20024;-57
2022/06/22 06:21:09;;;;;;;11.25;3.63;;;23.20;87.40;;;;;;5092262;28;20452;-56
2022/06/22 06:24:01;;;;;;;8.13;3.33;;;23.10;87.40;;;;;;5094835;28;20028;-57
2022/06/22 06:29:36;;;;;;;12.32;2.92;;;23.10;86.40;;;;;;5096238;28;20035;-56
2022/06/22 06:32:31;;;;;;;6.72;2.50;;;23.00;54.40;;;;;;5095901;28;20100;-57
2022/06/22 06:35:20;;;;;;;5.78;2.88;;;23.20;70.40;;;;;;5096315;28;20107;-55
2022/06/22 06:37:48;;;;;;;30.95;5.38;;;23.10;87.40;;;;;;5096277;28;20024;-56
2022/06/22 06:40:29;;;;;;;19.70;4.55;;;22.90;55.00;;;;;;5095848;28;20035;-56
2022/06/22 06:43:09;;;;;;;18.73;4.65;;;23.00;62.80;;;;;;5095864;28;20032;-56
2022/06/22 06:45:36;;;;;;;11.63;3.95;;;22.50;76.40;;;;;;5096022;28;20483;-56
2022/06/22 06:48:06;;;;;;;7.28;3.90;;;22.40;84.50;;;;;;5095838;28;20039;-56
2022/06/22 06:50:54;;;;;;;12.52;3.80;;;22.80;55.00;;;;;;5095825;28;20374;-56
2022/06/22 06:53:25;;;;;;;14.00;3.80;;;22.70;56.30;;;;;;5095675;28;20036;-56
2022/06/22 06:56:32;;;;;;;11.57;3.75;;;22.70;87.10;;;;;;5095664;28;20032;-57
2022/06/22 06:59:05;;;;;;;10.93;4.25;;;22.50;87.00;;;;;;5046183;28;20036;-55
2022/06/22 07:01:37;;;;;;;15.80;4.53;;;22.40;60.60;;;;;;5095662;28;20047;-57
2022/06/22 07:04:19;;;;;;;12.25;4.22;;;22.40;71.20;;;;;;5095748;28;20039;-57
2022/06/22 07:06:45;;;;;;;8.02;3.90;;;22.60;55.90;;;;;;5095516;28;20310;-57
2022/06/22 07:09:30;;;;;;;10.23;3.83;;;22.50;87.50;;;;;;5095492;28;20039;-58
2022/06/22 07:12:26;;;;;;;12.93;3.38;;;22.50;87.50;;;;;;5095585;28;20497;-58
2022/06/22 07:14:52;;;;;;;9.43;3.40;;;;;;;;;;5067756;28;20551;-57
2022/06/22 07:17:21;;;;;;;11.50;3.53;;;22.50;55.30;;;;;;5095504;28;20107;-57
2022/06/22 07:19:50;;;;;;;6.25;3.40;;;22.70;87.30;;;;;;5095413;28;20020;-57
2022/06/22 07:22:41;;;;;;;4.75;2.95;;;22.60;87.70;;;;;;5095439;28;20105;-56
2022/06/22 07:25:15;;;;;;;8.45;3.28;;;22.70;55.70;;;;;;5095643;28;20024;-57
2022/06/22 07:27:55;;;;;;;7.35;3.15;;;22.60;88.10;;;;;;5095295;28;20040;-57
2022/06/22 07:30:28;;;;;;;8.70;2.90;;;22.70;65.60;;;;;;5095093;28;20016;-56
2022/06/22 07:33:07;;;;;;;10.05;3.28;;;22.60;87.80;;;;;;5095234;28;20150;-57
2022/06/22 07:35:44;;;;;;;8.23;4.05;;;22.60;59.40;;;;;;5094032;28;20051;-55
2022/06/22 07:38:43;;;;;;;12.82;5.05;;;22.50;76.40;;;;;;5095011;28;20157;-56
2022/06/22 07:41:18;;;;;;;8.50;4.80;;;22.20;87.60;;;;;;5095235;28;20028;-57
2022/06/22 07:43:59;;;;;;;11.80;4.75;;;22.50;55.30;;;;;;5094707;28;20028;-56
2022/06/22 07:46:36;;;;;;;10.10;3.58;;;22.50;55.60;;;;;;5094858;28;20081;-55
2022/06/22 07:49:16;;;;;;;10.43;4.03;;;22.50;55.70;;;;;;5094640;28;20103;-57
2022/06/22 07:51:48;;;;;;;15.57;4.18;;;22.50;55.80;;;;;;5094961;28;20024;-56
2022/06/22 07:54:32;;;;;;;13.80;4.72;;;22.60;87.40;;;;;;5094449;28;20035;-53
2022/06/22 07:56:58;;;;;;;13.32;3.65;;;;;;;;;;5094400;28;20035;-53
2022/06/22 07:59:38;;;;;;;8.60;3.35;;;22.50;55.50;;;;;;5094547;28;20024;-50
2022/06/22 08:02:19;;;;;;;21.77;4.22;;;22.50;55.70;;;;;;5094229;28;20024;-52
2022/06/22 08:04:51;;;;;;;36.10;6.63;;;22.70;88.10;;;;;;5094043;28;20111;-52
2022/06/22 08:07:21;;;;;;;47.90;6.85;;;22.70;55.20;;;;;;5093836;28;20040;-51
2022/06/22 08:09:47;;;;;;;160.05;22.20;;;;;;;;;;5094318;28;20032;-51
2022/06/22 08:12:27;;;;;;;172.98;20.85;;;22.60;55.10;;;;;;5094013;28;20487;-52
2022/06/22 08:14:53;;;;;;;64.65;9.40;;;22.90;55.30;;;;;;5094159;28;20032;-51
2022/06/22 08:17:38;;;;;;;44.47;8.10;;;22.70;76.20;;;;;;5093896;28;20027;-51
2022/06/22 08:20:06;;;;;;;25.15;4.93;;;22.80;54.10;;;;;;5075622;28;20340;-51
2022/06/22 08:22:32;;;;;;;27.10;5.07;;;23.10;85.80;;;;;;5094091;28;20093;-51
2022/06/22 08:24:59;;;;;;;23.13;4.47;;;22.90;85.40;;;;;;5093802;28;20020;-53
2022/06/22 08:27:27;;;;;;;17.02;4.28;;;22.80;54.00;;;;;;5093821;28;20074;-51
2022/06/22 08:29:54;;;;;;;19.63;3.78;;;22.80;54.00;;;;;;5093863;28;20152;-59
2022/06/22 08:32:37;;;;;;;13.07;3.13;;;22.60;84.70;;;;;;5093637;28;20062;-52
2022/06/22 08:35:21;;;;;;;9.43;2.67;;;22.80;84.40;;;;;;5093609;28;20055;-52
2022/06/22 08:37:52;;;;;;;9.98;3.05;;;22.90;64.00;;;;;;5093427;28;20055;-53
2022/06/22 08:40:37;;;;;;;14.38;3.42;;;22.80;64.10;;;;;;5093543;28;20099;-51
2022/06/22 08:43:35;;;;;;;15.68;2.88;;;22.70;56.60;;;;;;5093528;28;20028;-53
2022/06/22 08:46:11;;;;;;;9.95;2.95;;;22.60;57.20;;;;;;5093293;28;20118;-51
2022/06/22 08:48:37;;;;;;;9.80;2.50;;;;;;;;;;5093384;28;20413;-54
2022/06/22 08:51:15;;;;;;;7.07;2.42;;;22.70;83.70;;;;;;5093288;28;20031;-51
2022/06/22 08:54:25;;;;;;;108.70;6.55;;;22.90;50.80;;;;;;5093324;28;20501;-53
2022/06/22 08:56:51;;;;;;;14.52;2.03;;;;;;;;;;5093126;28;20028;-52
2022/06/22 08:59:17;;;;;;;33.30;3.58;;;;;;;;;;5093402;28;20367;-51
2022/06/22 09:02:14;;;;;;;13.50;2.72;;;22.80;51.40;;;;;;5093172;28;20078;-51
2022/06/22 09:05:03;;;;;;;16.48;3.05;;;23.00;59.10;;;;;;5093490;28;20209;-52
2022/06/22 09:07:44;;;;;;;14.70;2.45;;;22.90;60.00;;;;;;5092268;28;20383;-52
2022/06/22 09:10:50;;;;;;;8.82;2.38;;;23.40;82.00;;;;;;5093315;28;20032;-51
2022/06/22 09:13:29;;;;;;;12.48;1.88;;;23.20;81.30;;;;;;5093056;28;20035;-52
2022/06/22 09:16:16;;;;;;;6.60;1.95;;;23.30;50.30;;;;;;5092811;28;20049;-51
2022/06/22 09:18:55;;;;;;;5.40;1.50;;;23.40;50.40;;;;;;5092500;28;20046;-51
2022/06/22 09:21:49;;;;;;;7.28;1.70;;;23.60;80.60;;;;;;5092831;28;20125;-54
2022/06/22 09:24:32;;;;;;;5.40;1.65;;;23.90;50.80;;;;;;5092460;28;20063;-52
2022/06/22 09:27:19;;;;;;;5.30;1.95;;;23.50;48.00;;;;;;5092824;28;20032;-52
2022/06/22 09:30:24;;;;;;;10.57;1.70;;;23.50;47.80;;;;;;5092442;28;20024;-54
2022/06/22 09:32:55;;;;;;;6.75;2.80;;;23.70;61.00;;;;;;5092431;28;20554;-55
2022/06/22 09:35:52;;;;;;;3.85;2.05;;;23.80;79.20;;;;;;5092656;28;20054;-56
2022/06/22 09:38:35;;;;;;;8.05;2.13;;;23.70;46.80;;;;;;5092351;28;20032;-55
2022/06/22 09:41:24;;;;;;;3.47;1.60;;;23.70;59.60;;;;;;5092662;28;20017;-50
2022/06/22 09:44:37;;;;;;;11.75;2.65;;;23.80;46.80;;;;;;5092412;28;20031;-51
2022/06/22 09:47:42;;;;;;;8.40;1.92;;;23.80;46.10;;;;;;5046975;28;20548;-50
2022/06/22 09:50:22;;;;;;;7.18;1.92;;;23.80;78.30;;;;;;5092423;28;20028;-51
2022/06/22 09:53:43;;;;;;;7.13;1.98;;;23.90;46.00;;;;;;5092309;28;20597;-52
2022/06/22 09:56:57;;;;;;;10.98;2.10;;;24.00;46.00;;;;;;4990418;28;20115;-53
2022/06/22 09:59:47;;;;;;;10.95;1.95;;;24.10;77.20;;;;;;4963262;28;20038;-51
2022/06/22 10:02:49;;;;;;;9.70;1.92;;;24.30;78.00;;;;;;5092139;28;20078;-51
2022/06/22 10:05:42;;;;;;;9.57;1.60;;;24.40;77.90;;;;;;5092132;28;20043;-52
2022/06/22 10:08:28;;;;;;;6.88;1.40;;;24.20;46.30;;;;;;5091851;28;20060;-50
2022/06/22 10:11:06;;;;;;;7.68;1.40;;;23.90;77.20;;;;;;5092152;28;20035;-51
2022/06/22 10:14:06;;;;;;;5.07;1.50;;;24.40;77.00;;;;;;5092075;28;20063;-52
2022/06/22 10:16:47;;;;;;;6.70;1.20;;;24.30;45.60;;;;;;5092139;28;20036;-50
2022/06/22 10:19:31;;;;;;;6.82;1.50;;;24.30;45.00;;;;;;5092424;28;20027;-50
2022/06/22 10:22:08;;;;;;;4.63;1.30;;;24.30;76.00;;;;;;5092174;28;20036;-54
2022/06/22 10:24:35;;;;;;;4.15;1.20;;;;;;;;;;5091982;28;20235;-52
2022/06/22 10:27:19;;;;;;;4.03;1.42;;;24.40;44.40;;;;;;5091699;28;20036;-50
2022/06/22 10:30:09;;;;;;;4.05;2.00;;;24.40;74.60;;;;;;5092113;28;20111;-51
2022/06/22 10:32:54;;;;;;;3.67;1.83;;;24.40;44.50;;;;;;5092084;28;20032;-51
2022/06/22 10:35:23;;;;;;;10.95;2.00;;;24.50;44.50;;;;;;5091837;28;20028;-50
2022/06/22 10:38:12;;;;;;;7.43;1.42;;;24.20;46.80;;;;;;5091994;28;20028;-52
2022/06/22 10:47:10;;;;;;;1.92;0.98;;;24.60;43.60;;;;;;5092043;28;20411;-50
2022/06/22 10:49:57;;;;;;;3.15;1.30;;;24.70;43.20;;;;;;5091776;28;20054;-50
2022/06/22 10:52:50;;;;;;;7.38;1.50;;;24.90;71.20;;;;;;5092090;28;20024;-51
2022/06/22 10:55:39;;;;;;;2.67;1.33;;;24.70;42.90;;;;;;5091939;28;20028;-52
2022/06/22 10:58:21;;;;;;;7.53;1.30;;;24.10;42.30;;;;;;5092009;28;20028;-52
2022/06/22 11:01:10;;;;;;;4.30;1.42;;;24.90;55.90;;;;;;5091927;28;20117;-51
2022/06/22 11:04:11;;;;;;;4.77;1.23;;;24.90;74.40;;;;;;5091858;28;20028;-52
2022/06/22 11:07:03;;;;;;;6.55;1.55;;;24.80;74.30;;;;;;5091751;28;20036;-52
2022/06/22 11:09:35;;;;;;;4.68;1.50;;;25.10;44.00;;;;;;5093876;28;20119;-55
2022/06/22 11:12:31;;;;;;;3.22;1.17;;;24.70;58.60;;;;;;5095439;28;20036;-54
2022/06/22 11:14:57;;;;;;;5.55;1.52;;;25.20;74.70;;;;;;5095629;28;20024;-53
2022/06/22 11:17:59;;;;;;;31.50;4.35;;;25.10;63.20;;;;;;5095281;28;20358;-51
2022/06/22 11:20:34;;;;;;;24.85;4.00;;;25.10;74.70;;;;;;5095391;28;20038;-52
2022/06/22 11:23:08;;;;;;;11.05;2.53;;;25.00;74.10;;;;;;5095593;28;20036;-52
2022/06/22 11:32:14;;;;;;;15.00;2.63;;;25.30;67.70;;;;;;5095535;28;20585;-51
2022/06/22 11:35:23;;;;;;;12.90;2.85;;;25.40;76.00;;;;;;5095168;28;20077;-54
2022/06/22 11:38:12;;;;;;;25.50;3.13;;;25.20;64.60;;;;;;5095053;28;20428;-53
2022/06/22 11:40:51;;;;;;;22.92;2.88;;;25.30;44.20;;;;;;5094938;28;20039;-53
2022/06/22 11:43:56;;;;;;;16.25;2.20;;;25.20;43.90;;;;;;5094879;28;20058;-55
2022/06/22 11:46:37;;;;;;;19.05;2.85;;;25.20;76.30;;;;;;5094817;28;20069;-55
2022/06/22 11:49:24;;;;;;;21.02;3.03;;;25.30;63.40;;;;;;5095065;28;20020;-55
2022/06/22 11:51:55;;;;;;;18.33;2.00;;;25.30;75.30;;;;;;5094811;28;20107;-54
2022/06/22 11:54:27;;;;;;;18.00;2.70;;;25.50;75.10;;;;;;5094655;28;20076;-50
2022/06/22 11:56:55;;;;;;;8.57;2.30;;;25.40;63.10;;;;;;5094618;28;20040;-52
2022/06/22 11:59:59;;;;;;;8.38;1.60;;;25.20;74.80;;;;;;5094810;28;20100;-54
2022/06/22 12:02:54;;;;;;;9.93;2.20;;;25.30;43.80;;;;;;5094487;28;20028;-55
2022/06/22 12:06:06;;;;;;;4.90;1.70;;;25.50;75.10;;;;;;5094843;28;20165;-55
2022/06/22 12:08:53;;;;;;;7.75;1.55;;;25.40;43.30;;;;;;5004437;28;20073;-54
2022/06/22 12:11:40;;;;;;;8.30;1.30;;;25.70;52.60;;;;;;5094581;28;20028;-54
2022/06/22 12:17:37;;;;;;;7.28;1.23;;;25.60;67.10;;;;;;5094622;28;20042;-55
2022/06/22 12:20:16;;;;;;;7.05;1.40;;;25.50;43.00;;;;;;5093851;28;20428;-51
2022/06/22 12:23:00;;;;;;;4.20;1.15;;;25.50;73.60;;;;;;5094264;28;20472;-51
2022/06/22 12:25:26;;;;;;;3.42;1.15;;;;;;;;;;5094216;28;20031;-52
2022/06/22 12:28:28;;;;;;;5.93;0.88;;;25.30;73.20;;;;;;5094125;28;20513;-54
2022/06/22 12:31:11;;;;;;;10.85;1.00;;;25.70;73.40;;;;;;5094114;28;20063;-54
2022/06/22 12:33:52;;;;;;;5.53;1.20;;;25.30;54.10;;;;;;5094116;28;20024;-51
2022/06/22 12:36:33;;;;;;;4.05;1.13;;;25.60;73.00;;;;;;5094083;28;20024;-53
2022/06/22 12:39:05;;;;;;;3.80;1.10;;;25.30;72.90;;;;;;5093965;28;20032;-54
2022/06/22 12:41:42;;;;;;;1.77;0.93;;;25.00;72.30;;;;;;5093839;28;20048;-53
2022/06/22 12:44:46;;;;;;;7.47;0.98;;;25.60;72.70;;;;;;5093871;28;20028;-52
2022/06/22 12:47:33;;;;;;;3.83;1.10;;;25.40;71.40;;;;;;5093797;28;20059;-54
2022/06/22 12:50:37;;;;;;;3.85;1.17;;;25.40;70.80;;;;;;5093800;28;20020;-52
2022/06/22 12:53:20;;;;;;;11.05;1.20;;;25.90;72.20;;;;;;5037729;28;20043;-51
2022/06/22 12:55:53;;;;;;;6.28;1.30;;;25.50;72.20;;;;;;5093502;28;20080;-50
2022/06/22 12:58:31;;;;;;;7.30;1.40;;;25.60;51.20;;;;;;5093244;28;20537;-53
2022/06/22 13:00:58;;;;;;;8.13;1.50;;;25.40;72.80;;;;;;5093622;28;20478;-51
2022/06/22 13:03:33;;;;;;;8.75;1.20;;;25.80;73.20;;;;;;5093298;28;20024;-52
2022/06/22 13:05:59;;;;;;;29.98;3.00;;;25.80;63.90;;;;;;5093180;28;20031;-51
2022/06/22 13:08:27;;;;;;;26.25;2.55;;;25.90;47.30;;;;;;5093088;28;20047;-54
2022/06/22 13:10:58;;;;;;;26.45;2.20;;;25.10;58.10;;;;;;5093241;28;20491;-53
2022/06/22 13:13:42;;;;;;;12.02;2.55;;;25.70;74.10;;;;;;5093311;28;20028;-49
2022/06/22 13:16:19;;;;;;;15.70;1.95;;;25.60;74.40;;;;;;5093249;28;20115;-53
2022/06/22 13:18:50;;;;;;;14.80;1.73;;;25.60;43.60;;;;;;5093171;28;20039;-54
2022/06/22 13:21:41;;;;;;;16.17;2.50;;;25.40;74.40;;;;;;5093232;28;20028;-54
2022/06/22 13:24:31;;;;;;;11.77;1.58;;;25.70;44.90;;;;;;5093033;28;20028;-54
2022/06/22 13:26:57;;;;;;;15.30;1.58;;;;;;;;;;5092826;28;20090;-55
2022/06/22 13:29:59;;;;;;;10.13;2.08;;;25.60;43.80;;;;;;5092793;28;20020;-55
2022/06/22 13:32:28;;;;;;;11.07;1.30;;;25.70;44.20;;;;;;5091967;28;20036;-54
2022/06/22 13:35:32;;;;;;;6.57;1.50;;;25.80;52.70;;;;;;5092808;28;20467;-55
2022/06/22 13:38:17;;;;;;;6.88;1.45;;;25.70;75.00;;;;;;5062381;28;20044;-56
2022/06/22 13:41:01;;;;;;;9.90;1.23;;;25.80;70.70;;;;;;5092783;28;20467;-56
2022/06/22 13:43:40;;;;;;;7.72;0.80;;;25.70;75.20;;;;;;5092763;28;20367;-55
2022/06/22 13:46:21;;;;;;;6.25;1.35;;;25.50;72.40;;;;;;5092529;28;20043;-55
2022/06/22 13:49:11;;;;;;;5.50;0.70;;;25.50;44.60;;;;;;5092681;28;20388;-55
2022/06/22 13:51:51;;;;;;;5.82;1.05;;;24.90;75.70;;;;;;5092766;28;20087;-56
2022/06/22 13:54:42;;;;;;;7.07;1.13;;;25.60;76.10;;;;;;5074402;28;20032;-55
2022/06/22 13:57:21;;;;;;;6.35;1.10;;;25.50;48.20;;;;;;5092565;28;20028;-56
2022/06/22 13:59:58;;;;;;;8.50;0.88;;;25.60;76.30;;;;;;5092561;28;20082;-56
2022/06/22 14:02:50;;;;;;;2.72;0.88;;;25.80;76.40;;;;;;5092403;28;20032;-53
2022/06/22 14:05:16;;;;;;;9.48;1.63;;;;;;;;;;5092408;28;20012;-56
2022/06/22 14:08:13;;;;;;;2.58;1.10;;;25.60;76.50;;;;;;5092258;28;20062;-56
2022/06/22 14:11:01;;;;;;;4.45;0.82;;;25.40;45.10;;;;;;5092452;28;20024;-56
2022/06/22 14:14:00;;;;;;;3.97;0.75;;;25.70;76.50;;;;;;5092354;28;20028;-57
2022/06/22 14:16:55;;;;;;;2.15;0.50;;;25.70;76.60;;;;;;5092420;28;20081;-55
2022/06/22 14:19:33;;;;;;;3.22;0.80;;;25.40;76.70;;;;;;5092352;28;20039;-55
2022/06/22 14:22:02;;;;;;;6.45;1.10;;;25.40;58.20;;;;;;5092318;28;20107;-56